Time;durP1;ratioP1;P1;durP2;ratioP2;P2;SDS_P1;SDS_P2;PMS_P1;PMS_P2;Temp;Humidity;BMP_temperature;BMP_pressure;BME280_temperature;BME280_humidity;BME280_pressure;Samples;Min_cycle;Max_cycle;Signal;HPM_P1;HPM_P2
2023/01/31 00:01:12;;;;;;;;;;;4.60;1.00;;;;;;5011253;28;19917;-77
2023/01/31 00:03:39;;;;;;;;;;;4.60;1.00;;;;;;5008678;28;19913;-78
2023/01/31 00:06:13;;;;;;;;;;;4.70;1.00;;;;;;5014040;28;19910;-76
2023/01/31 00:08:39;;;;;;;;;;;4.70;1.00;;;;;;5002567;28;19917;-80
2023/01/31 00:11:06;;;;;;;;;;;4.70;1.00;;;;;;4994349;28;19913;-77
2023/01/31 00:13:32;;;;;;;;;;;4.70;1.00;;;;;;5009281;28;20287;-77
2023/01/31 00:15:58;;;;;;;;;;;4.70;1.00;;;;;;5006444;28;19906;-78
2023/01/31 00:18:24;;;;;;;;;;;4.60;1.00;;;;;;5009147;28;19916;-77
2023/01/31 00:20:50;;;;;;;;;;;4.60;1.00;;;;;;5006466;28;19909;-77
2023/01/31 00:23:16;;;;;;;;;;;4.60;1.00;;;;;;5011670;28;19916;-77
2023/01/31 00:25:42;;;;;;;;;;;4.60;1.00;;;;;;5007148;28;19913;-77
2023/01/31 00:28:08;;;;;;;;;;;4.60;1.00;;;;;;5010875;28;19923;-77
2023/01/31 00:30:34;;;;;;;;;;;4.50;1.00;;;;;;5009373;28;19916;-79
2023/01/31 00:33:00;;;;;;;;;;;4.40;1.00;;;;;;5007786;28;19912;-77
2023/01/31 00:35:26;;;;;;;;;;;4.40;1.00;;;;;;5012101;28;19929;-77
2023/01/31 00:37:52;;;;;;;;;;;4.30;1.00;;;;;;5007414;28;19913;-77
2023/01/31 00:40:18;;;;;;;;;;;4.30;1.00;;;;;;5011033;28;19991;-78
2023/01/31 00:42:44;;;;;;;;;;;4.20;1.00;;;;;;5006949;28;19910;-79
2023/01/31 00:45:10;;;;;;;;;;;4.20;1.00;;;;;;5008721;28;20015;-77
2023/01/31 00:47:37;;;;;;;;;;;4.20;1.00;;;;;;4987331;28;19937;-80
2023/01/31 00:50:03;;;;;;;;;;;4.10;1.00;;;;;;5010297;28;20262;-77
2023/01/31 00:52:29;;;;;;;;;;;4.10;1.00;;;;;;5009469;28;19920;-77
2023/01/31 00:54:56;;;;;;;;;;;4.20;1.00;;;;;;5005526;28;19905;-78
2023/01/31 00:57:22;;;;;;;;;;;4.20;1.00;;;;;;5010947;28;19960;-77
2023/01/31 00:59:48;;;;;;;;;;;4.30;1.00;;;;;;4998505;28;19920;-78
2023/01/31 01:02:14;;;;;;;;;;;4.30;1.00;;;;;;5005666;28;19968;-79
2023/01/31 01:04:40;;;;;;;;;;;4.40;1.00;;;;;;5019582;28;19933;-79
2023/01/31 01:07:06;;;;;;;;;;;4.40;1.00;;;;;;5000704;28;19910;-79
2023/01/31 01:09:32;;;;;;;;;;;4.40;1.00;;;;;;5011487;28;19914;-78
2023/01/31 01:11:58;;;;;;;;;;;4.40;1.00;;;;;;4996679;28;20494;-78
2023/01/31 01:14:24;;;;;;;;;;;4.50;1.00;;;;;;5013016;28;19914;-78
2023/01/31 01:16:52;;;;;;;;;;;4.60;1.00;;;;;;5009115;28;19905;-79
2023/01/31 01:19:18;;;;;;;;;;;4.60;1.00;;;;;;5006399;28;19910;-78
2023/01/31 01:21:46;;;;;;;;;;;4.60;1.00;;;;;;4998815;28;20630;-78
2023/01/31 01:24:14;;;;;;;;;;;4.60;1.00;;;;;;4991730;28;19920;-77
2023/01/31 01:26:40;;;;;;;;;;;4.50;1.00;;;;;;5006564;28;19917;-77
2023/01/31 01:29:06;;;;;;;;;;;4.60;1.00;;;;;;5011199;28;19920;-76
2023/01/31 01:31:32;;;;;;;;;;;4.50;1.00;;;;;;5015753;28;19913;-76
2023/01/31 01:34:03;;;;;;;;;;;4.50;1.00;;;;;;5025874;28;19905;-77
2023/01/31 01:36:30;;;;;;;;;;;4.50;1.00;;;;;;5015602;28;20346;-77
2023/01/31 01:38:56;;;;;;;;;;;4.50;1.00;;;;;;5013561;28;19921;-76
2023/01/31 01:41:23;;;;;;;;;;;4.40;1.00;;;;;;5017807;28;19916;-76
2023/01/31 01:43:50;;;;;;;;;;;4.40;1.00;;;;;;5012040;28;20350;-78
2023/01/31 01:46:25;;;;;;;;;;;4.40;1.00;;;;;;5015724;28;20236;-76
2023/01/31 01:48:54;;;;;;;;;;;4.40;1.00;;;;;;5015881;28;19928;-77
2023/01/31 01:51:20;;;;;;;;;;;4.40;1.00;;;;;;5013934;28;19909;-76
2023/01/31 01:53:49;;;;;;;;;;;4.40;1.00;;;;;;4998493;28;19909;-76
2023/01/31 01:56:18;;;;;;;;;;;4.50;1.00;;;;;;4989201;28;19909;-76
2023/01/31 01:58:51;;;;;;;;;;;4.50;1.00;;;;;;5005741;28;19987;-76
2023/01/31 02:01:17;;;;;;;;;;;4.40;1.00;;;;;;5014393;28;19917;-75
2023/01/31 02:03:46;;;;;;;;;;;4.40;1.00;;;;;;4998323;28;19910;-76
2023/01/31 02:06:12;;;;;;;;;;;4.40;1.00;;;;;;5015304;28;19925;-76
2023/01/31 02:08:41;;;;;;;;;;;4.40;1.00;;;;;;5015168;28;19928;-77
2023/01/31 02:11:26;;;;;;;;;;;4.30;1.00;;;;;;5016926;28;19910;-77
2023/01/31 02:13:58;;;;;;;;;;;4.30;1.00;;;;;;4985284;28;19928;-78
2023/01/31 02:16:24;;;;;;;;;;;4.40;1.00;;;;;;5015444;28;19909;-77
2023/01/31 02:18:51;;;;;;;;;;;4.40;1.00;;;;;;5015738;28;19913;-78
2023/01/31 02:21:23;;;;;;;;;;;4.30;1.00;;;;;;5015799;28;19921;-77
2023/01/31 02:24:07;;;;;;;;;;;4.30;1.00;;;;;;5016183;28;20025;-79
2023/01/31 02:26:52;;;;;;;;;;;4.30;1.00;;;;;;5016950;28;19909;-78
2023/01/31 02:29:26;;;;;;;;;;;4.30;1.00;;;;;;5016561;28;19924;-78
2023/01/31 02:31:52;;;;;;;;;;;4.20;1.00;;;;;;5016497;28;19913;-79
2023/01/31 02:34:27;;;;;;;;;;;4.20;1.00;;;;;;5017771;28;19931;-78
2023/01/31 02:36:54;;;;;;;;;;;4.20;1.00;;;;;;5021172;28;19913;-78
2023/01/31 02:39:23;;;;;;;;;;;4.20;1.00;;;;;;5010502;28;20351;-77
2023/01/31 02:41:52;;;;;;;;;;;4.20;1.00;;;;;;5010186;28;19916;-77
2023/01/31 02:47:07;;;;;;;;;;;4.30;1.00;;;;;;5011422;28;19917;-77
2023/01/31 02:49:43;;;;;;;;;;;4.20;1.00;;;;;;5012104;28;19905;-78
2023/01/31 02:52:33;;;;;;;;;;;4.20;1.00;;;;;;5011852;28;20374;-78
2023/01/31 02:57:57;;;;;;;;;;;4.10;1.00;;;;;;5002642;28;19916;-77
2023/01/31 03:00:24;;;;;;;;;;;4.20;1.00;;;;;;5012116;28;19913;-78
2023/01/31 03:02:50;;;;;;;;;;;4.10;1.00;;;;;;5005181;28;19910;-77
2023/01/31 03:05:18;;;;;;;;;;;4.10;1.00;;;;;;5012535;28;20355;-78
2023/01/31 03:07:55;;;;;;;;;;;4.10;1.00;;;;;;5010033;28;19918;-79
2023/01/31 03:10:41;;;;;;;;;;;4.00;1.00;;;;;;5010375;28;19913;-78
2023/01/31 03:13:07;;;;;;;;;;;3.90;1.00;;;;;;4984643;28;19910;-80
2023/01/31 03:18:28;;;;;;;;;;;3.80;1.00;;;;;;5008917;28;19916;-78
2023/01/31 03:21:01;;;;;;;;;;;3.70;1.00;;;;;;5012053;28;19913;-78
2023/01/31 03:23:30;;;;;;;;;;;3.70;1.00;;;;;;5010724;28;19910;-78
2023/01/31 03:26:00;;;;;;;;;;;3.60;1.00;;;;;;5013942;28;19912;-79
2023/01/31 03:28:28;;;;;;;;;;;3.50;1.00;;;;;;5013012;28;19924;-78
2023/01/31 03:31:05;;;;;;;;;;;3.50;1.00;;;;;;5014042;28;20298;-77
2023/01/31 03:33:32;;;;;;;;;;;3.40;1.00;;;;;;5011419;28;19916;-77
2023/01/31 03:36:19;;;;;;;;;;;3.40;1.00;;;;;;5038064;28;19920;-78
2023/01/31 03:39:08;;;;;;;;;;;3.40;1.00;;;;;;5011357;28;19916;-77
2023/01/31 03:41:37;;;;;;;;;;;3.40;1.00;;;;;;5015219;28;19909;-77
2023/01/31 03:44:22;;;;;;;;;;;3.30;1.00;;;;;;5012958;28;20390;-78
2023/01/31 03:46:58;;;;;;;;;;;3.20;1.00;;;;;;4988377;28;19909;-77
2023/01/31 03:49:25;;;;;;;;;;;3.20;1.00;;;;;;5008041;28;19924;-77
2023/01/31 03:51:56;;;;;;;;;;;3.20;1.00;;;;;;5009425;28;19924;-78
2023/01/31 03:54:24;;;;;;;;;;;3.20;1.00;;;;;;4996007;28;20398;-77
2023/01/31 03:57:11;;;;;;;;;;;2.90;1.00;;;;;;5019107;28;19909;-77
2023/01/31 03:59:38;;;;;;;;;;;3.00;1.00;;;;;;4985315;28;19916;-77
2023/01/31 04:02:05;;;;;;;;;;;3.00;1.00;;;;;;5007554;28;19917;-78
2023/01/31 04:04:38;;;;;;;;;;;3.00;1.00;;;;;;4998162;28;19910;-77
2023/01/31 04:07:05;;;;;;;;;;;2.90;1.00;;;;;;5009236;28;19920;-77
2023/01/31 04:09:31;;;;;;;;;;;2.80;1.00;;;;;;5009208;28;19940;-77
2023/01/31 04:11:58;;;;;;;;;;;2.50;1.00;;;;;;5011147;28;19932;-77
2023/01/31 04:14:24;;;;;;;;;;;2.40;1.00;;;;;;5009515;28;19916;-77
2023/01/31 04:16:50;;;;;;;;;;;2.30;1.00;;;;;;5010251;28;20413;-78
2023/01/31 04:19:16;;;;;;;;;;;2.20;1.00;;;;;;5009960;28;20001;-78
2023/01/31 04:21:42;;;;;;;;;;;2.10;1.00;;;;;;5002130;28;19932;-77
2023/01/31 04:24:08;;;;;;;;;;;2.30;1.00;;;;;;5009429;28;20363;-77
2023/01/31 04:26:35;;;;;;;;;;;2.40;1.00;;;;;;5008118;28;19916;-77
2023/01/31 04:29:01;;;;;;;;;;;2.40;1.00;;;;;;5009337;28;19913;-76
2023/01/31 04:31:27;;;;;;;;;;;2.50;1.00;;;;;;5011501;28;20342;-76
2023/01/31 04:33:53;;;;;;;;;;;2.60;1.00;;;;;;5007442;28;19909;-77
2023/01/31 04:36:18;;;;;;;;;;;2.70;1.00;;;;;;5010683;28;19996;-76
2023/01/31 04:38:44;;;;;;;;;;;2.70;1.00;;;;;;5007464;28;20386;-78
2023/01/31 04:41:10;;;;;;;;;;;2.70;1.00;;;;;;5009953;28;19906;-77
2023/01/31 04:43:36;;;;;;;;;;;2.60;1.00;;;;;;5003817;28;20321;-78
2023/01/31 04:46:02;;;;;;;;;;;2.40;1.00;;;;;;4997765;28;19909;-78
2023/01/31 04:48:29;;;;;;;;;;;2.20;1.00;;;;;;5000914;28;19917;-77
2023/01/31 04:50:55;;;;;;;;;;;2.10;1.00;;;;;;5010576;28;20286;-77
2023/01/31 04:53:21;;;;;;;;;;;1.90;1.00;;;;;;5010299;28;19948;-77
2023/01/31 04:55:47;;;;;;;;;;;2.00;1.00;;;;;;5000584;28;19936;-78
2023/01/31 04:58:13;;;;;;;;;;;2.00;1.00;;;;;;4984220;28;19914;-77
2023/01/31 05:00:39;;;;;;;;;;;1.90;1.00;;;;;;5005755;28;19917;-76
2023/01/31 05:03:05;;;;;;;;;;;1.90;1.00;;;;;;5008617;28;19909;-77
2023/01/31 05:05:31;;;;;;;;;;;1.90;1.00;;;;;;5008903;28;20371;-77
2023/01/31 05:07:57;;;;;;;;;;;2.00;1.00;;;;;;5005136;28;19920;-77
2023/01/31 05:10:23;;;;;;;;;;;2.00;1.00;;;;;;4990685;28;19913;-76
2023/01/31 05:12:50;;;;;;;;;;;2.00;1.00;;;;;;5006788;28;19987;-78
2023/01/31 05:15:16;;;;;;;;;;;2.00;1.00;;;;;;5007525;28;19913;-76
2023/01/31 05:17:42;;;;;;;;;;;1.80;1.00;;;;;;5006812;28;19909;-76
2023/01/31 05:20:08;;;;;;;;;;;1.70;1.00;;;;;;5006213;28;20045;-75
2023/01/31 05:22:34;;;;;;;;;;;1.60;1.00;;;;;;5005634;28;19913;-76
2023/01/31 05:25:00;;;;;;;;;;;1.40;1.00;;;;;;5004909;28;19916;-78
2023/01/31 05:27:26;;;;;;;;;;;1.30;1.00;;;;;;5010260;28;19910;-76
2023/01/31 05:29:52;;;;;;;;;;;1.20;1.00;;;;;;5002821;28;20271;-77
2023/01/31 05:32:18;;;;;;;;;;;1.10;1.00;;;;;;5018507;28;19916;-76
2023/01/31 05:34:44;;;;;;;;;;;0.90;1.00;;;;;;5007812;28;19916;-77
2023/01/31 05:37:10;;;;;;;;;;;0.70;1.00;;;;;;4998312;28;19968;-76
2023/01/31 05:39:36;;;;;;;;;;;0.60;1.00;;;;;;5009541;28;19910;-76
2023/01/31 05:42:02;;;;;;;;;;;0.50;1.00;;;;;;5007044;28;19920;-77
2023/01/31 05:44:28;;;;;;;;;;;0.40;1.00;;;;;;5010805;28;20339;-76
2023/01/31 05:46:54;;;;;;;;;;;0.30;1.00;;;;;;5005136;28;19913;-76
2023/01/31 05:49:20;;;;;;;;;;;0.30;1.00;;;;;;5010387;28;19920;-76
2023/01/31 05:51:46;;;;;;;;;;;0.20;1.00;;;;;;5009048;28;19913;-75
2023/01/31 05:54:12;;;;;;;;;;;0.20;1.00;;;;;;5006269;28;20000;-76
2023/01/31 05:56:38;;;;;;;;;;;0.40;1.00;;;;;;5009037;28;19912;-76
2023/01/31 05:59:04;;;;;;;;;;;0.40;1.00;;;;;;5009016;28;20362;-76
2023/01/31 06:01:30;;;;;;;;;;;0.40;1.00;;;;;;5007919;28;19918;-76
2023/01/31 06:03:56;;;;;;;;;;;0.40;1.00;;;;;;5007007;28;19999;-76
2023/01/31 06:06:22;;;;;;;;;;;0.50;1.00;;;;;;5006463;28;19914;-76
2023/01/31 06:08:48;;;;;;;;;;;0.50;1.00;;;;;;5004760;28;19918;-79
2023/01/31 06:11:14;;;;;;;;;;;0.50;1.00;;;;;;4996100;28;19917;-80
2023/01/31 06:13:44;;;;;;;;;;;0.60;1.00;;;;;;5008264;28;19906;-77
2023/01/31 06:16:10;;;;;;;;;;;0.60;1.00;;;;;;5001052;28;19906;-77
2023/01/31 06:18:36;;;;;;;;;;;0.70;1.00;;;;;;5008963;28;20382;-77
2023/01/31 06:21:02;;;;;;;;;;;0.80;1.00;;;;;;5011667;28;19917;-77
2023/01/31 06:23:28;;;;;;;;;;;0.90;1.00;;;;;;5012803;28;19905;-76
2023/01/31 06:25:54;;;;;;;;;;;1.00;1.00;;;;;;5012451;28;19964;-76
2023/01/31 06:28:20;;;;;;;;;;;1.00;1.00;;;;;;5002541;28;19909;-76
2023/01/31 06:30:46;;;;;;;;;;;1.00;1.00;;;;;;4992711;28;19905;-76
2023/01/31 06:33:13;;;;;;;;;;;1.10;1.00;;;;;;5012690;28;19909;-76
2023/01/31 06:35:39;;;;;;;;;;;1.20;1.00;;;;;;5011296;28;19910;-76
2023/01/31 06:38:06;;;;;;;;;;;1.30;1.00;;;;;;5013125;28;19912;-75
2023/01/31 06:40:32;;;;;;;;;;;1.50;1.00;;;;;;5011193;28;19905;-76
2023/01/31 06:42:58;;;;;;;;;;;1.60;1.00;;;;;;5014286;28;19905;-76
2023/01/31 06:45:24;;;;;;;;;;;1.70;1.00;;;;;;5013814;28;19928;-76
2023/01/31 06:47:50;;;;;;;;;;;1.80;1.00;;;;;;5008398;28;19913;-77
2023/01/31 06:50:16;;;;;;;;;;;1.90;1.00;;;;;;5004479;28;19916;-76
2023/01/31 06:52:42;;;;;;;;;;;1.90;1.00;;;;;;5000418;28;19913;-78
2023/01/31 06:55:08;;;;;;;;;;;1.90;1.00;;;;;;5007034;28;20398;-76
2023/01/31 06:57:34;;;;;;;;;;;2.00;1.00;;;;;;5022970;28;19913;-77
2023/01/31 07:00:01;;;;;;;;;;;2.00;1.00;;;;;;5013434;28;19901;-76
2023/01/31 07:02:27;;;;;;;;;;;2.10;1.00;;;;;;5009799;28;19913;-76
2023/01/31 07:04:54;;;;;;;;;;;2.10;1.00;;;;;;5010562;28;19918;-76
2023/01/31 07:07:20;;;;;;;;;;;2.10;1.00;;;;;;5011657;28;19913;-76
2023/01/31 07:09:46;;;;;;;;;;;2.00;1.00;;;;;;5010135;28;19948;-77
2023/01/31 07:12:12;;;;;;;;;;;2.10;1.00;;;;;;5012828;28;20003;-77
2023/01/31 07:14:38;;;;;;;;;;;2.10;1.00;;;;;;5007838;28;20350;-76
2023/01/31 07:17:04;;;;;;;;;;;2.10;1.00;;;;;;5011694;28;19905;-76
2023/01/31 07:19:30;;;;;;;;;;;2.10;1.00;;;;;;5019104;28;20306;-77
2023/01/31 07:21:56;;;;;;;;;;;2.10;1.00;;;;;;5010082;28;20020;-77
2023/01/31 07:24:22;;;;;;;;;;;2.00;1.00;;;;;;5012695;28;19919;-77
2023/01/31 07:26:51;;;;;;;;;;;2.00;1.00;;;;;;5009091;28;20332;-76
2023/01/31 07:29:17;;;;;;;;;;;2.00;1.00;;;;;;5018823;28;20299;-77
2023/01/31 07:31:43;;;;;;;;;;;2.10;1.00;;;;;;5011733;28;19951;-76
2023/01/31 07:34:09;;;;;;;;;;;2.20;1.00;;;;;;5012460;28;19902;-76
2023/01/31 07:36:35;;;;;;;;;;;2.20;1.00;;;;;;5011909;28;19905;-76
2023/01/31 07:39:01;;;;;;;;;;;2.30;1.00;;;;;;5003772;28;19953;-76
2023/01/31 07:41:27;;;;;;;;;;;2.40;1.00;;;;;;5014848;28;19906;-76
2023/01/31 07:43:53;;;;;;;;;;;2.40;1.00;;;;;;5010359;28;19906;-77
2023/01/31 07:46:19;;;;;;;;;;;2.40;1.00;;;;;;5012470;28;19901;-76
2023/01/31 07:48:45;;;;;;;;;;;2.40;1.00;;;;;;5021456;28;19925;-75
2023/01/31 07:51:11;;;;;;;;;;;2.50;1.00;;;;;;5005307;28;19909;-76
2023/01/31 07:53:41;;;;;;;;;;;2.50;1.00;;;;;;5011819;28;19917;-75
2023/01/31 07:56:09;;;;;;;;;;;2.60;1.00;;;;;;5009182;28;19905;-75
2023/01/31 07:58:36;;;;;;;;;;;2.50;1.00;;;;;;5016896;28;19906;-75
2023/01/31 08:03:46;;;;;;;;;;;2.60;1.00;;;;;;5021056;28;19912;-76
2023/01/31 08:06:13;;;;;;;;;;;2.70;1.00;;;;;;5016113;28;20358;-76
2023/01/31 08:08:40;;;;;;;;;;;2.70;1.00;;;;;;5010676;28;19931;-75
2023/01/31 08:11:06;;;;;;;;;;;2.70;1.00;;;;;;5009219;28;20359;-76
2023/01/31 08:13:34;;;;;;;;;;;2.70;1.00;;;;;;5008676;28;20339;-76
2023/01/31 08:16:00;;;;;;;;;;;2.70;1.00;;;;;;5009734;28;19905;-76
2023/01/31 08:18:26;;;;;;;;;;;2.80;1.00;;;;;;5011910;28;20068;-75
2023/01/31 08:20:52;;;;;;;;;;;2.80;1.00;;;;;;5012028;28;20006;-77
2023/01/31 08:23:18;;;;;;;;;;;3.00;1.00;;;;;;5010678;28;19909;-75
2023/01/31 08:25:44;;;;;;;;;;;3.20;1.00;;;;;;5011020;28;19901;-75
2023/01/31 08:28:10;;;;;;;;;;;3.60;1.00;;;;;;5010961;28;20008;-76
2023/01/31 08:30:40;;;;;;;;;;;3.90;1.00;;;;;;5013017;28;19927;-76
2023/01/31 08:33:07;;;;;;;;;;;4.00;1.00;;;;;;5006382;28;19913;-76
2023/01/31 08:35:33;;;;;;;;;;;4.00;1.00;;;;;;5009130;28;19905;-76
2023/01/31 08:37:59;;;;;;;;;;;3.90;1.00;;;;;;5009118;28;19901;-76
2023/01/31 08:40:25;;;;;;;;;;;4.00;1.00;;;;;;5011532;28;19923;-76
2023/01/31 08:42:54;;;;;;;;;;;4.00;1.00;;;;;;5009586;28;20376;-77
2023/01/31 08:45:21;;;;;;;;;;;3.90;1.00;;;;;;5008453;28;19924;-75
2023/01/31 08:47:47;;;;;;;;;;;3.90;1.00;;;;;;5007697;28;19912;-75
2023/01/31 08:50:13;;;;;;;;;;;3.90;1.00;;;;;;5008797;28;19924;-76
2023/01/31 08:52:39;;;;;;;;;;;3.90;1.00;;;;;;5010440;28;20263;-75
2023/01/31 08:55:07;;;;;;;;;;;3.90;1.00;;;;;;5010611;28;20004;-76
2023/01/31 08:57:33;;;;;;;;;;;3.90;1.00;;;;;;5009282;28;19906;-75
2023/01/31 08:59:59;;;;;;;;;;;3.90;1.00;;;;;;5009250;28;19933;-75
2023/01/31 09:02:25;;;;;;;;;;;3.90;1.00;;;;;;5010535;28;20250;-75
2023/01/31 09:04:51;;;;;;;;;;;3.90;1.00;;;;;;5008119;28;19912;-75
2023/01/31 09:07:20;;;;;;;;;;;4.00;1.00;;;;;;5007556;28;20258;-75
2023/01/31 09:09:47;;;;;;;;;;;3.90;1.00;;;;;;5005147;28;19916;-76
2023/01/31 09:12:13;;;;;;;;;;;4.00;1.00;;;;;;5006362;28;19916;-75
2023/01/31 09:14:39;;;;;;;;;;;4.00;1.00;;;;;;5007780;28;19974;-76
2023/01/31 09:17:06;;;;;;;;;;;3.90;1.00;;;;;;5008300;28;19909;-76
2023/01/31 09:19:32;;;;;;;;;;;3.80;1.00;;;;;;5009486;28;19910;-75
2023/01/31 09:21:58;;;;;;;;;;;3.80;1.00;;;;;;5010042;28;20234;-75
2023/01/31 09:24:24;;;;;;;;;;;3.90;1.00;;;;;;5005976;28;19910;-74
2023/01/31 09:26:53;;;;;;;;;;;3.90;1.00;;;;;;5012157;28;19912;-75
2023/01/31 09:29:18;;;;;;;;;;;3.90;1.00;;;;;;5007048;28;20274;-74
2023/01/31 09:31:44;;;;;;;;;;;3.80;1.00;;;;;;5009991;28;19909;-75
2023/01/31 09:34:10;;;;;;;;;;;3.80;1.00;;;;;;5007916;28;19902;-74
2023/01/31 09:36:36;;;;;;;;;;;3.90;1.00;;;;;;5008461;28;19905;-74
2023/01/31 09:39:02;;;;;;;;;;;3.90;1.00;;;;;;5010782;28;19916;-75
2023/01/31 09:41:31;;;;;;;;;;;3.90;1.00;;;;;;5008118;28;19905;-75
2023/01/31 09:44:00;;;;;;;;;;;4.00;1.00;;;;;;5006288;28;20339;-75
2023/01/31 09:46:28;;;;;;;;;;;4.10;1.00;;;;;;5010595;28;19912;-74
2023/01/31 09:48:57;;;;;;;;;;;4.20;1.00;;;;;;5008574;28;19916;-74
2023/01/31 09:51:23;;;;;;;;;;;4.30;1.00;;;;;;5012618;28;20362;-74
2023/01/31 09:53:49;;;;;;;;;;;4.30;1.00;;;;;;5011950;28;19997;-75
2023/01/31 09:56:18;;;;;;;;;;;4.40;1.00;;;;;;5005074;28;19906;-75
2023/01/31 09:58:47;;;;;;;;;;;4.60;1.00;;;;;;5011118;28;19905;-74
2023/01/31 10:01:31;;;;;;;;;;;4.60;1.00;;;;;;5013584;28;19920;-74
2023/01/31 10:04:32;;;;;;;;;;;4.70;1.00;;;;;;5008792;28;19960;-77
2023/01/31 10:07:08;;;;;;;;;;;4.70;1.00;;;;;;4979960;28;19917;-76
2023/01/31 10:09:36;;;;;;;;;;;4.70;1.00;;;;;;5007489;28;19909;-75
2023/01/31 10:12:37;;;;;;;;;;;4.70;1.00;;;;;;5013298;28;20227;-75
2023/01/31 10:15:15;;;;;;;;;;;4.80;1.00;;;;;;4969909;28;19913;-76
2023/01/31 10:17:44;;;;;;;;;;;4.90;1.00;;;;;;5005527;28;19984;-77
2023/01/31 10:20:30;;;;;;;;;;;5.00;1.00;;;;;;5013656;28;19901;-77
2023/01/31 10:23:02;;;;;;;;;;;5.00;1.00;;;;;;5004654;28;19905;-77
2023/01/31 10:26:01;;;;;;;;;;;4.90;1.00;;;;;;5011507;28;19910;-77
2023/01/31 10:28:33;;;;;;;;;;;5.00;1.00;;;;;;4993671;28;19906;-77
2023/01/31 10:31:11;;;;;;;;;;;5.10;1.00;;;;;;5013037;28;19909;-77
2023/01/31 10:33:40;;;;;;;;;;;5.20;1.00;;;;;;5008087;28;20377;-76
2023/01/31 10:36:16;;;;;;;;;;;5.10;1.00;;;;;;5010176;28;19902;-76
2023/01/31 10:39:02;;;;;;;;;;;5.10;1.00;;;;;;5013152;28;19910;-76
2023/01/31 10:41:44;;;;;;;;;;;5.10;1.00;;;;;;4986506;28;19942;-76
2023/01/31 10:44:22;;;;;;;;;;;5.10;1.00;;;;;;5010406;28;20397;-76
2023/01/31 10:46:50;;;;;;;;;;;5.10;1.00;;;;;;5006641;28;19905;-76
2023/01/31 10:49:18;;;;;;;;;;;5.10;1.00;;;;;;5008645;28;19916;-76
2023/01/31 10:51:44;;;;;;;;;;;5.20;1.00;;;;;;5001397;28;19909;-76
2023/01/31 10:54:12;;;;;;;;;;;5.20;1.00;;;;;;5012926;28;19967;-76
2023/01/31 10:56:43;;;;;;;;;;;5.10;1.00;;;;;;5010316;28;19912;-76
2023/01/31 10:59:29;;;;;;;;;;;5.20;1.00;;;;;;5012400;28;20342;-76
2023/01/31 11:01:57;;;;;;;;;;;5.10;1.00;;;;;;5014335;28;19914;-76
2023/01/31 11:04:25;;;;;;;;;;;5.10;1.00;;;;;;5006167;28;19953;-77
2023/01/31 11:06:51;;;;;;;;;;;5.10;1.00;;;;;;5020632;28;19905;-77
2023/01/31 11:09:17;;;;;;;;;;;5.10;1.00;;;;;;5009922;28;19917;-77
2023/01/31 11:11:54;;;;;;;;;;;5.10;1.00;;;;;;5012229;28;19917;-77
2023/01/31 11:14:20;;;;;;;;;;;5.00;1.00;;;;;;5011605;28;20128;-76
2023/01/31 11:16:46;;;;;;;;;;;5.10;1.00;;;;;;5012053;28;19905;-76
2023/01/31 11:19:22;;;;;;;;;;;5.10;1.00;;;;;;5012779;28;20004;-77
2023/01/31 11:21:52;;;;;;;;;;;5.10;1.00;;;;;;5010023;28;19920;-76
2023/01/31 11:24:22;;;;;;;;;;;5.10;1.00;;;;;;5010256;28;20257;-76
2023/01/31 11:27:08;;;;;;;;;;;5.10;1.00;;;;;;5011511;28;20211;-76
2023/01/31 11:29:37;;;;;;;;;;;5.20;99.90;;;;;;5000389;28;19932;-76
2023/01/31 11:32:05;;;;;;;;;;;5.30;99.90;;;;;;5011541;28;19909;-77
2023/01/31 11:34:32;;;;;;;;;;;5.30;99.90;;;;;;5007697;28;19913;-76
2023/01/31 11:37:03;;;;;;;;;;;5.50;99.90;;;;;;5010811;28;20343;-76
2023/01/31 11:39:30;;;;;;;;;;;5.40;99.90;;;;;;5011675;28;20351;-74
2023/01/31 11:42:03;;;;;;;;;;;5.40;99.90;;;;;;5011278;28;19902;-76
2023/01/31 11:44:29;;;;;;;;;;;5.40;99.90;;;;;;5010044;28;19906;-76
2023/01/31 11:46:56;;;;;;;;;;;5.40;99.90;;;;;;5011153;28;20004;-76
2023/01/31 11:49:26;;;;;;;;;;;5.40;99.90;;;;;;5009532;28;20259;-76
2023/01/31 11:51:52;;;;;;;;;;;5.30;99.90;;;;;;5012842;28;20290;-76
2023/01/31 11:54:29;;;;;;;;;;;5.30;99.90;;;;;;5010655;28;19909;-76
2023/01/31 11:56:56;;;;;;;;;;;5.30;99.90;;;;;;5012338;28;19906;-76
2023/01/31 11:59:25;;;;;;;;;;;5.40;99.90;;;;;;5009273;28;19921;-76
2023/01/31 12:01:53;;;;;;;;;;;5.30;99.90;;;;;;5006835;28;19933;-77
2023/01/31 12:04:29;;;;;;;;;;;5.30;99.90;;;;;;5009898;28;19917;-76
2023/01/31 12:07:00;;;;;;;;;;;5.30;99.90;;;;;;5003654;28;19905;-76
2023/01/31 12:09:28;;;;;;;;;;;5.30;99.90;;;;;;5012697;28;19924;-77
2023/01/31 12:11:56;;;;;;;;;;;5.20;99.90;;;;;;5006254;28;19909;-77
2023/01/31 12:14:23;;;;;;;;;;;5.20;99.90;;;;;;5011979;28;19905;-76
2023/01/31 12:16:52;;;;;;;;;;;5.20;1.00;;;;;;5010726;28;19912;-78
2023/01/31 12:19:31;;;;;;;;;;;5.30;99.90;;;;;;5005789;28;19901;-77
2023/01/31 12:21:57;;;;;;;;;;;5.30;99.90;;;;;;5020929;28;19905;-76
2023/01/31 12:24:32;;;;;;;;;;;5.30;1.00;;;;;;5019903;28;20528;-78
2023/01/31 12:27:04;;;;;;;;;;;5.30;1.00;;;;;;5021707;28;19906;-77
2023/01/31 12:29:40;;;;;;;;;;;5.20;1.00;;;;;;5018038;28;19910;-76
2023/01/31 12:32:06;;;;;;;;;;;5.20;1.00;;;;;;5007225;28;19916;-76
2023/01/31 12:34:49;;;;;;;;;;;5.10;1.00;;;;;;5010664;28;19921;-76
2023/01/31 12:37:33;;;;;;;;;;;5.10;1.00;;;;;;5010508;28;19928;-73
2023/01/31 12:40:09;;;;;;;;;;;5.10;1.00;;;;;;5002552;28;19906;-77
2023/01/31 12:42:42;;;;;;;;;;;5.00;1.00;;;;;;5010990;28;19913;-76
2023/01/31 12:45:23;;;;;;;;;;;5.00;1.00;;;;;;5004718;28;19905;-76
2023/01/31 12:48:08;;;;;;;;;;;5.00;1.00;;;;;;5010899;28;19905;-76
2023/01/31 12:50:34;;;;;;;;;;;5.00;1.00;;;;;;5002460;28;20258;-76
2023/01/31 12:53:15;;;;;;;;;;;5.00;1.00;;;;;;5017893;28;19916;-76
2023/01/31 12:56:05;;;;;;;;;;;5.10;1.00;;;;;;5006541;28;19905;-76
2023/01/31 12:58:34;;;;;;;;;;;5.10;1.00;;;;;;5009350;28;19906;-76
2023/01/31 13:01:03;;;;;;;;;;;5.10;1.00;;;;;;4987848;28;19913;-77
2023/01/31 13:03:44;;;;;;;;;;;5.10;1.00;;;;;;5009610;28;19905;-76
2023/01/31 13:06:18;;;;;;;;;;;5.10;1.00;;;;;;5002253;28;19921;-77
2023/01/31 13:08:52;;;;;;;;;;;5.00;1.00;;;;;;5010255;28;19913;-76
2023/01/31 13:11:20;;;;;;;;;;;5.00;1.00;;;;;;5017201;28;19921;-76
2023/01/31 13:13:58;;;;;;;;;;;4.90;1.00;;;;;;5002253;28;19906;-77
2023/01/31 13:16:33;;;;;;;;;;;4.90;1.00;;;;;;5002488;28;20232;-76
2023/01/31 13:19:00;;;;;;;;;;;4.90;1.00;;;;;;5008615;28;19905;-76
2023/01/31 13:21:29;;;;;;;;;;;4.80;1.00;;;;;;5008748;28;19926;-76
2023/01/31 13:23:58;;;;;;;;;;;4.70;1.00;;;;;;5009006;28;19909;-76
2023/01/31 13:26:28;;;;;;;;;;;4.70;1.00;;;;;;5006516;28;20347;-77
2023/01/31 13:29:03;;;;;;;;;;;4.80;1.00;;;;;;5000074;28;19906;-77
2023/01/31 13:31:32;;;;;;;;;;;4.80;1.00;;;;;;5005814;28;19990;-77
2023/01/31 13:34:00;;;;;;;;;;;4.90;1.00;;;;;;5012402;28;19906;-77
2023/01/31 13:36:30;;;;;;;;;;;4.90;1.00;;;;;;5008048;28;20158;-76
2023/01/31 13:38:56;;;;;;;;;;;4.80;1.00;;;;;;5009812;28;19906;-76
2023/01/31 13:41:27;;;;;;;;;;;4.80;1.00;;;;;;5010132;28;19918;-76
2023/01/31 13:43:54;;;;;;;;;;;4.90;1.00;;;;;;5010584;28;20278;-77
2023/01/31 13:46:23;;;;;;;;;;;4.90;1.00;;;;;;5011505;28;19901;-76
2023/01/31 13:48:54;;;;;;;;;;;4.80;1.00;;;;;;5009445;28;19906;-75
2023/01/31 13:51:23;;;;;;;;;;;4.80;1.00;;;;;;5005524;28;19922;-76
2023/01/31 13:53:53;;;;;;;;;;;4.70;1.00;;;;;;5008604;28;19918;-78
2023/01/31 13:56:22;;;;;;;;;;;4.60;1.00;;;;;;5005833;28;19906;-76
2023/01/31 13:58:49;;;;;;;;;;;4.60;1.00;;;;;;5010901;28;19910;-76
2023/01/31 14:01:17;;;;;;;;;;;4.60;1.00;;;;;;5006290;28;19913;-76
2023/01/31 14:04:02;;;;;;;;;;;4.50;1.00;;;;;;5005062;28;19913;-78
2023/01/31 14:06:46;;;;;;;;;;;4.50;1.00;;;;;;5008628;28;20120;-77
2023/01/31 14:09:28;;;;;;;;;;;4.50;1.00;;;;;;5005895;28;19909;-77
2023/01/31 14:11:56;;;;;;;;;;;4.50;1.00;;;;;;5011308;28;19909;-77
2023/01/31 14:14:39;;;;;;;;;;;4.50;1.00;;;;;;5007598;28;19901;-77
2023/01/31 14:17:24;;;;;;;;;;;4.50;1.00;;;;;;4995953;28;19906;-76
2023/01/31 14:19:54;;;;;;;;;;;4.50;1.00;;;;;;5000638;28;19910;-76
2023/01/31 14:22:30;;;;;;;;;;;4.50;1.00;;;;;;4995675;28;19913;-76
2023/01/31 14:24:59;;;;;;;;;;;4.50;1.00;;;;;;5013654;28;20366;-77
2023/01/31 14:27:29;;;;;;;;;;;4.50;1.00;;;;;;5009795;28;19906;-77
2023/01/31 14:29:55;;;;;;;;;;;4.50;1.00;;;;;;4999597;28;19916;-76
2023/01/31 14:32:48;;;;;;;;;;;4.60;1.00;;;;;;5009032;28;19905;-76
2023/01/31 14:35:14;;;;;;;;;;;4.60;1.00;;;;;;4996958;28;19973;-75
2023/01/31 14:37:49;;;;;;;;;;;4.60;1.00;;;;;;5005901;28;19909;-75
2023/01/31 14:40:15;;;;;;;;;;;4.60;1.00;;;;;;5012867;28;19912;-76
2023/01/31 14:43:00;;;;;;;;;;;4.60;1.00;;;;;;5015895;28;20346;-76
2023/01/31 14:45:32;;;;;;;;;;;4.60;1.00;;;;;;5015871;28;19913;-75
2023/01/31 14:47:58;;;;;;;;;;;4.70;1.00;;;;;;5013554;28;19905;-76
2023/01/31 14:50:36;;;;;;;;;;;4.80;1.00;;;;;;5013096;28;19955;-76
2023/01/31 14:53:21;;;;;;;;;;;4.80;1.00;;;;;;5006523;28;19950;-76
2023/01/31 14:55:54;;;;;;;;;;;4.70;1.00;;;;;;5010405;28;19906;-76
2023/01/31 14:58:23;;;;;;;;;;;4.80;1.00;;;;;;5008850;28;19952;-76
2023/01/31 15:00:54;;;;;;;;;;;4.70;1.00;;;;;;5014290;28;19921;-76
2023/01/31 15:03:23;;;;;;;;;;;4.70;1.00;;;;;;5005990;28;19906;-77
2023/01/31 15:05:51;;;;;;;;;;;4.60;1.00;;;;;;5012567;28;19905;-75
2023/01/31 15:08:19;;;;;;;;;;;4.60;1.00;;;;;;5009157;28;20334;-76